Home   Weather   United Kingdom   Durham   Past weeks
Flag for United Kingdom

Past Weather in Durham, England, United Kingdom — Yesterday and Last 2 Weeks

Currently: 63 °F. Partly sunny. (Weather station: Newcastle, United Kingdom). See more current weather

Past Weather in Durham — Graph

°F

Durham Temperature Yesterday

Maximum temperature yesterday: 64 °F (at 3:50 pm)
Minimum temperature yesterday: 52 °F (at 4:50 am)
Average temperature yesterday: 58 °F

High & Low Weather Summary for the Past Weeks

 TemperatureHumidityPressure
High75 °F (Jun 23, 12:50 pm)100% (Jun 22, 2:20 am)30.21 "Hg (Jun 22, 2:20 am)
Low50 °F (Jun 23, 4:20 am)38% (Jun 25, 4:50 pm)29.47 "Hg (Jun 24, 4:50 pm)
Average60 °F73%29.85 "Hg
* Reported Jun 20 1:20 pm — Jul 5 1:20 pm, Durham. Weather by CustomWeather, © 2022

Note: Actual official high and low records may vary slightly from our data, if they occured in-between our weather recording intervals... More about our weather records

Durham Weather History for the Previous 24 Hours

Scroll right to see more
 ConditionsComfort  
Time TempWeatherWind HumidityBarometerVisibility
1:20 pm
Tue, Jul 5
61 °FPartly sunny.9 mph55%30.21 "HgN/A
12:50 pm61 °FPartly sunny.9 mph55%30.21 "HgN/A
12:20 pm61 °FPartly sunny.12 mph55%30.21 "HgN/A
11:50 am61 °FPartly sunny.14 mph52%30.18 "HgN/A
11:20 am61 °FPartly sunny.13 mph55%30.18 "HgN/A
10:50 am59 °FPartly sunny.12 mph59%30.18 "HgN/A
10:20 am59 °FScattered clouds.12 mph59%30.18 "HgN/A
9:50 am59 °FScattered clouds.15 mph63%30.18 "HgN/A
9:20 am59 °FScattered clouds.16 mph63%30.18 "HgN/A
8:20 am57 °FScattered clouds.13 mph72%30.15 "HgN/A
7:50 am55 °FPartly sunny.10 mph77%30.15 "HgN/A
7:20 am55 °FPartly sunny.12 mph77%30.15 "HgN/A
6:50 am54 °FPartly sunny.9 mph82%30.15 "HgN/A
6:20 am54 °FPartly sunny.13 mph77%30.15 "HgN/A
5:50 am54 °FPartly sunny.12 mph82%30.12 "HgN/A
5:20 am52 °FPartly sunny.9 mph88%30.12 "HgN/A
4:50 am52 °FPartly sunny.12 mph88%30.12 "HgN/A
4:20 am52 °FPassing clouds.12 mph82%30.12 "HgN/A
3:50 am52 °FPassing clouds.13 mph82%30.12 "HgN/A
3:20 am50 °FPassing clouds.10 mph88%30.09 "HgN/A
2:50 am52 °FPassing clouds.14 mph82%30.09 "HgN/A
2:20 am50 °FCool.14 mph88%30.09 "HgN/A
1:50 am50 °FPassing clouds.14 mph88%30.12 "HgN/A
12:20 am52 °FClear.10 mph82%30.12 "Hg10 mi
11:50 pm
Mon, Jul 4
52 °FClear.9 mph82%30.09 "Hg10 mi
11:20 pm52 °FClear.8 mph82%30.09 "Hg10 mi
10:20 pm54 °FClear.12 mph72%30.09 "Hg10 mi
9:50 pm55 °FPassing clouds.8 mph67%30.09 "HgN/A
9:20 pm55 °FPassing clouds.10 mph67%30.07 "HgN/A
8:50 pm57 °FPassing clouds.17 mph63%30.07 "HgN/A
8:20 pm59 °FPassing clouds.20 mph55%30.07 "HgN/A
7:50 pm59 °FPassing clouds.23 mph55%30.04 "HgN/A
7:20 pm61 °FPassing clouds.23 mph52%30.04 "HgN/A
6:50 pm61 °FPassing clouds.23 mph55%30.04 "HgN/A
5:50 pm63 °FPassing clouds.21 mph56%30.01 "HgN/A
5:20 pm64 °FPassing clouds.24 mph52%30.01 "HgN/A
4:20 pm64 °FPassing clouds.23 mph56%30.01 "HgN/A
3:50 pm64 °FScattered clouds.24 mph56%30.01 "HgN/A
3:20 pm63 °FScattered clouds.21 mph59%30.01 "HgN/A
2:20 pm63 °FScattered clouds.21 mph56%30.01 "HgN/A
Weather by CustomWeather, © 2022

See weather overview